Time;durP1;ratioP1;P1;durP2;ratioP2;P2;SDS_P1;SDS_P2;PMS_P1;PMS_P2;Temp;Humidity;BMP_temperature;BMP_pressure;BME280_temperature;BME280_humidity;BME280_pressure;Samples;Min_cycle;Max_cycle;Signal;HPM_P1;HPM_P2
2020/12/06 00:02:12;;;;;;;37.63;14.83;;;;;;;-4.68;72.29;101844.28;1742134;81;21174;-84
2020/12/06 00:04:41;;;;;;;28.80;11.50;;;;;;;-4.72;72.42;101842.34;1740903;80;21131;-86
2020/12/06 00:07:15;;;;;;;30.43;12.13;;;;;;;-4.74;72.47;101840.09;1791469;80;21701;-84
2020/12/06 00:09:49;;;;;;;32.10;13.93;;;;;;;-4.77;72.62;101846.36;1776028;79;21151;-82
2020/12/06 00:12:27;;;;;;;30.40;12.53;;;;;;;-4.80;72.42;101859.06;1778270;79;21035;-82
2020/12/06 00:16:07;;;;;;;28.73;11.77;;;;;;;-4.80;72.41;101850.07;1860538;76;25191;-79
2020/12/06 00:18:36;;;;;;;33.53;12.37;;;;;;;-4.87;71.97;101858.73;1806386;78;21211;-83
2020/12/06 00:21:03;;;;;;;36.20;16.67;;;;;;;-4.89;71.94;101853.91;1814604;78;21443;-83
2020/12/06 00:23:30;;;;;;;34.67;12.00;;;;;;;-4.90;72.37;101856.01;1818913;78;21210;-79
2020/12/06 00:25:59;;;;;;;32.57;11.83;;;;;;;-4.92;71.90;101853.75;1810828;78;21047;-81
2020/12/06 00:28:28;;;;;;;30.37;11.90;;;;;;;-4.95;71.26;101857.42;1810401;78;21209;-81
2020/12/06 00:31:00;;;;;;;29.33;11.63;;;;;;;-4.98;71.13;101864.10;1808750;77;21166;-80
2020/12/06 00:33:29;;;;;;;31.10;13.07;;;;;;;-5.03;71.07;101856.14;1809637;78;23001;-80
2020/12/06 00:35:57;;;;;;;37.43;11.50;;;;;;;-5.06;71.26;101859.44;1811661;78;21229;-79
2020/12/06 00:38:25;;;;;;;25.93;11.07;;;;;;;-5.08;71.02;101855.02;1813429;78;21051;-79
2020/12/06 00:40:53;;;;;;;25.87;10.97;;;;;;;-5.12;70.64;101855.65;1811803;78;21195;-82
2020/12/06 00:43:21;;;;;;;28.07;11.43;;;;;;;-5.15;70.75;101853.80;1809497;78;21078;-83
2020/12/06 00:45:49;;;;;;;23.87;10.97;;;;;;;-5.15;70.87;101855.50;1806106;78;21729;-80
2020/12/06 00:48:25;;;;;;;31.33;11.50;;;;;;;-5.18;70.76;101857.88;1812570;78;21205;-78
2020/12/06 00:50:53;;;;;;;26.17;11.33;;;;;;;-5.19;71.04;101858.69;1811611;78;21122;-78
2020/12/06 00:53:21;;;;;;;23.43;10.73;;;;;;;-5.21;71.04;101857.72;1814585;77;21122;-82
2020/12/06 00:55:49;;;;;;;32.53;13.07;;;;;;;-5.25;70.80;101861.79;1806454;78;22223;-81
2020/12/06 00:58:18;;;;;;;29.30;11.60;;;;;;;-5.27;71.24;101861.73;1807394;78;22337;-81
2020/12/06 01:00:45;;;;;;;31.93;11.37;;;;;;;-5.31;70.96;101858.50;1773992;79;21791;-81
2020/12/06 01:03:14;;;;;;;34.80;13.00;;;;;;;-5.32;70.91;101860.56;1777180;79;21157;-81
2020/12/06 01:05:42;;;;;;;23.83;10.67;;;;;;;-5.34;70.97;101858.31;1782328;79;21199;-79
2020/12/06 01:08:10;;;;;;;32.37;11.83;;;;;;;-5.37;70.56;101854.30;1781720;79;21201;-80
2020/12/06 01:10:38;;;;;;;28.27;11.40;;;;;;;-5.36;71.26;101865.45;1772572;79;21390;-78
2020/12/06 01:13:06;;;;;;;33.80;12.67;;;;;;;-5.40;71.29;101859.69;1779875;79;21191;-80
2020/12/06 01:15:34;;;;;;;23.97;11.23;;;;;;;-5.42;71.35;101857.43;1769767;79;21669;-80
2020/12/06 01:18:02;;;;;;;30.53;11.00;;;;;;;-5.44;71.91;101868.89;1773653;79;21374;-82
2020/12/06 01:20:32;;;;;;;25.80;10.97;;;;;;;-5.48;71.56;101861.40;1771925;79;21212;-82
2020/12/06 01:23:01;;;;;;;22.73;9.63;;;;;;;-5.51;71.22;101864.22;1772340;79;21436;-80
2020/12/06 01:25:29;;;;;;;24.23;10.60;;;;;;;-5.54;71.38;101862.77;1776764;79;21989;-80
2020/12/06 01:27:57;;;;;;;23.40;10.20;;;;;;;-5.55;71.68;101864.83;1776393;79;21157;-80
2020/12/06 01:30:25;;;;;;;25.00;10.07;;;;;;;-5.60;71.55;101855.59;1776564;79;21069;-81
2020/12/06 01:32:54;;;;;;;27.13;11.23;;;;;;;-5.63;71.63;101862.26;1772901;79;21186;-82
2020/12/06 01:35:23;;;;;;;23.13;10.60;;;;;;;-5.65;71.54;101863.84;1773701;79;21240;-81
2020/12/06 01:37:51;;;;;;;24.03;9.47;;;;;;;-5.68;71.57;101864.56;1778961;79;21650;-80
2020/12/06 01:40:18;;;;;;;19.07;7.83;;;;;;;-5.71;71.54;101862.67;1776280;79;21936;-77
2020/12/06 01:42:47;;;;;;;23.53;8.13;;;;;;;-5.70;71.97;101867.44;1775869;79;21759;-82
2020/12/06 01:45:15;;;;;;;21.67;9.93;;;;;;;-5.72;71.45;101863.48;1770402;79;21202;-82
2020/12/06 01:47:44;;;;;;;25.17;10.87;;;;;;;-5.74;71.67;101866.36;1778228;79;21212;-81
2020/12/06 01:50:14;;;;;;;;;;;;;;;-5.77;71.35;101870.05;1784625;79;21154;-81
2020/12/06 01:52:42;;;;;;;24.17;9.63;;;;;;;-5.78;71.38;101868.67;1776214;79;20856;-78
2020/12/06 01:55:12;;;;;;;23.17;9.60;;;;;;;-5.79;71.95;101875.90;1784591;79;21205;-81
2020/12/06 01:57:40;;;;;;;28.57;10.83;;;;;;;-5.83;71.35;101864.56;1778844;79;21299;-79
2020/12/06 02:00:09;;;;;;;23.37;9.57;;;;;;;-5.84;71.50;101873.07;1779779;78;21208;-78
2020/12/06 02:02:37;;;;;;;25.20;9.60;;;;;;;-5.88;71.58;101867.27;1782337;79;21148;-80
2020/12/06 02:05:06;;;;;;;32.13;11.30;;;;;;;-5.91;71.29;101864.13;1779765;79;21127;-80
2020/12/06 02:07:34;;;;;;;28.67;9.67;;;;;;;-5.92;71.33;101871.73;1778937;79;21161;-82
2020/12/06 02:10:04;;;;;;;;;;;;;;;-5.95;71.31;101863.91;1718381;81;21168;-81
2020/12/06 02:12:33;;;;;;;25.47;9.07;;;;;;;-5.99;71.39;101867.08;1749511;81;21423;-81
2020/12/06 02:15:02;;;;;;;22.00;8.83;;;;;;;-6.02;71.30;101862.66;1751678;81;21210;-82
2020/12/06 02:17:32;;;;;;;22.53;9.27;;;;;;;-6.05;71.18;101870.19;1744592;81;21083;-80
2020/12/06 02:20:03;;;;;;;19.60;7.77;;;;;;;-6.06;71.01;101871.38;1752122;81;21427;-80
2020/12/06 02:22:31;;;;;;;19.07;8.80;;;;;;;-6.09;71.33;101868.64;1755398;81;21689;-80
2020/12/06 02:24:59;;;;;;;27.93;9.60;;;;;;;-6.13;70.97;101874.85;1746745;80;21248;-80
2020/12/06 02:27:28;;;;;;;16.93;7.33;;;;;;;-6.13;71.16;101873.57;1738132;81;21281;-81
2020/12/06 02:29:55;;;;;;;30.30;10.33;;;;;;;-6.16;70.69;101877.25;1746160;80;21757;-79
2020/12/06 02:32:23;;;;;;;17.87;7.47;;;;;;;-6.18;71.07;101883.96;1752304;80;21266;-77
2020/12/06 02:34:51;;;;;;;27.00;10.10;;;;;;;-6.21;70.84;101881.23;1746324;81;21614;-79
2020/12/06 02:37:19;;;;;;;41.67;12.80;;;;;;;-6.24;70.66;101883.59;1715752;82;21191;-79
2020/12/06 02:39:51;;;;;;;30.33;10.83;;;;;;;-6.25;70.69;101886.97;1743024;81;22011;-80
2020/12/06 02:42:19;;;;;;;23.67;7.47;;;;;;;-6.26;70.70;101895.44;1746083;81;25805;-79
2020/12/06 02:44:48;;;;;;;29.03;11.40;;;;;;;-6.28;70.63;101879.11;1741513;81;21309;-78
2020/12/06 02:47:17;;;;;;;24.07;10.13;;;;;;;-6.31;70.82;101872.48;1747418;81;21160;-80
2020/12/06 02:49:45;;;;;;;25.73;10.30;;;;;;;-6.32;70.77;101878.42;1735597;81;21741;-80
2020/12/06 02:52:14;;;;;;;26.70;10.33;;;;;;;-6.35;70.78;101878.22;1752656;81;21610;-79
2020/12/06 02:54:41;;;;;;;19.33;7.63;;;;;;;-6.35;70.78;101883.34;1739744;81;21224;-79
2020/12/06 02:57:10;;;;;;;19.90;8.80;;;;;;;-6.38;70.56;101889.59;1747457;81;21199;-80
2020/12/06 02:59:37;;;;;;;21.70;7.67;;;;;;;-6.40;70.56;101887.33;1783967;78;21118;-78
2020/12/06 03:02:07;;;;;;;38.23;12.60;;;;;;;-6.45;70.59;101890.02;1793786;78;21354;-80
2020/12/06 03:04:35;;;;;;;31.37;10.23;;;;;;;-6.48;70.74;101888.56;1789699;78;21229;-79
2020/12/06 03:07:04;;;;;;;35.70;12.40;;;;;;;-6.46;71.08;101889.55;1800869;78;21107;-79
2020/12/06 03:09:34;;;;;;;36.97;12.57;;;;;;;-6.48;71.17;101895.85;1808017;78;21632;-81
2020/12/06 03:12:02;;;;;;;25.37;10.30;;;;;;;-6.48;70.78;101889.84;1805401;78;21273;-79
2020/12/06 03:14:30;;;;;;;20.40;9.20;;;;;;;-6.50;70.90;101891.43;1804705;78;22089;-80
2020/12/06 03:16:58;;;;;;;26.57;10.37;;;;;;;-6.58;70.72;101894.42;1790147;78;21118;-77
2020/12/06 03:19:26;;;;;;;32.07;10.90;;;;;;;-6.56;70.55;101900.53;1802291;78;21134;-79
2020/12/06 03:21:54;;;;;;;18.73;8.13;;;;;;;-6.57;70.37;101892.33;1790303;78;21234;-78
2020/12/06 03:24:22;;;;;;;23.60;8.13;;;;;;;-6.57;70.59;101903.86;1772428;80;21570;-80
2020/12/06 03:26:50;;;;;;;23.63;9.50;;;;;;;-6.57;70.66;101907.70;1769792;79;21374;-80
2020/12/06 03:29:18;;;;;;;20.03;9.23;;;;;;;-6.59;70.58;101897.75;1789322;79;21119;-78
2020/12/06 03:31:46;;;;;;;16.20;7.23;;;;;;;-6.59;70.32;101902.88;1764127;79;21265;-79
2020/12/06 03:34:14;;;;;;;21.93;8.90;;;;;;;-6.62;70.32;101912.95;1789144;79;21202;-81
2020/12/06 03:36:43;;;;;;;22.00;8.20;;;;;;;-6.65;70.49;101908.91;1844798;77;21170;-80
2020/12/06 03:39:15;;;;;;;16.17;8.63;;;;;;;-6.63;70.25;101911.17;1767359;79;22595;-80
2020/12/06 03:41:46;;;;;;;20.93;8.40;;;;;;;-6.64;70.07;101906.84;1785250;78;21103;-81
2020/12/06 03:44:13;;;;;;;22.23;9.53;;;;;;;-6.66;70.08;101907.55;1755529;80;21617;-74
2020/12/06 03:46:42;;;;;;;23.57;8.67;;;;;;;-6.64;70.26;101914.53;1756845;80;21692;-76
2020/12/06 03:49:09;;;;;;;16.17;7.03;;;;;;;-6.65;70.38;101937.09;1754118;80;21625;-75
2020/12/06 03:51:37;;;;;;;22.13;8.33;;;;;;;-6.65;70.20;101923.00;1754784;80;21266;-79
2020/12/06 03:54:05;;;;;;;21.73;8.93;;;;;;;-6.70;70.08;101915.44;1751908;80;21142;-79
2020/12/06 03:56:35;;;;;;;24.57;9.10;;;;;;;-6.68;69.97;101914.25;1789419;79;21218;-81
2020/12/06 03:59:06;;;;;;;18.37;8.53;;;;;;;-6.71;70.04;101917.52;1783759;77;21193;31
2020/12/06 04:01:34;;;;;;;20.90;8.63;;;;;;;-6.72;69.75;101917.02;1679915;83;21142;-79
2020/12/06 04:04:02;;;;;;;15.43;7.50;;;;;;;-6.70;70.17;101923.52;1694766;83;22265;-80
2020/12/06 04:06:30;;;;;;;17.33;7.13;;;;;;;-6.70;70.03;101919.68;1721906;82;21199;-80
2020/12/06 04:08:58;;;;;;;19.93;8.17;;;;;;;-6.74;70.02;101914.75;1715057;81;21162;-80
2020/12/06 04:11:25;;;;;;;20.70;8.17;;;;;;;-6.75;69.90;101919.40;1723873;81;21654;-80
2020/12/06 04:13:53;;;;;;;20.30;8.00;;;;;;;-6.78;69.98;101917.53;1720025;82;21267;-80
2020/12/06 04:16:21;;;;;;;19.47;8.23;;;;;;;-6.76;70.28;101923.64;1720008;82;21218;-79
2020/12/06 04:18:49;;;;;;;20.63;8.83;;;;;;;-6.77;69.72;101933.79;1713631;83;21199;-78
2020/12/06 04:21:17;;;;;;;24.50;9.37;;;;;;;-6.77;69.64;101932.50;1714353;82;21146;-79
2020/12/06 04:23:45;;;;;;;24.83;8.60;;;;;;;-6.78;69.64;101928.19;1734229;82;21240;-79
2020/12/06 04:26:13;;;;;;;14.70;6.70;;;;;;;-6.77;69.87;101931.22;1721087;82;22360;-76
2020/12/06 04:28:41;;;;;;;18.70;8.50;;;;;;;-6.79;69.51;101930.23;1665519;84;21395;-78
2020/12/06 04:31:09;;;;;;;21.40;8.27;;;;;;;-6.80;69.44;101940.02;1710579;82;21206;-79
2020/12/06 04:33:37;;;;;;;15.97;7.07;;;;;;;-6.78;69.44;101938.44;1711741;81;21150;-78
2020/12/06 04:36:05;;;;;;;21.60;8.20;;;;;;;-6.77;69.31;101932.50;1714821;82;22038;-77
2020/12/06 04:38:32;;;;;;;18.07;8.23;;;;;;;-6.77;69.60;101942.75;1671282;83;21603;-77
2020/12/06 04:41:02;;;;;;;17.13;7.57;;;;;;;-6.78;69.51;101933.31;1715594;83;22319;-76
2020/12/06 04:43:30;;;;;;;20.67;8.17;;;;;;;-6.81;69.83;101939.50;1707932;83;21602;-77
2020/12/06 04:45:59;;;;;;;23.17;9.07;;;;;;;-6.83;69.47;101941.08;1671458;83;21698;-78
2020/12/06 04:48:46;;;;;;;21.17;9.30;;;;;;;-6.84;69.39;101948.29;1712560;81;21191;-78
2020/12/06 04:51:14;;;;;;;28.30;9.23;;;;;;;-6.86;69.43;101942.18;1675251;84;21252;-76
2020/12/06 04:53:51;;;;;;;26.17;9.33;;;;;;;-6.86;69.27;101949.87;1666576;83;21336;-77
2020/12/06 04:56:19;;;;;;;33.30;11.10;;;;;;;-6.87;69.63;101942.98;1665546;83;21163;-78
2020/12/06 04:58:47;;;;;;;36.73;11.23;;;;;;;-6.86;69.83;101947.30;1688485;81;21585;-78
2020/12/06 05:01:15;;;;;;;28.00;10.73;;;;;;;-6.88;69.44;101943.76;1701035;82;21626;-76
2020/12/06 05:03:42;;;;;;;17.43;7.30;;;;;;;-6.87;69.37;101942.98;1693519;83;21183;-77
2020/12/06 05:06:13;;;;;;;30.47;12.27;;;;;;;-6.87;69.82;101939.14;1666916;83;22313;-78
2020/12/06 05:08:41;;;;;;;29.05;10.90;;;;;;;-6.88;69.34;101945.04;1674180;82;21559;-80
2020/12/06 05:11:09;;;;;;;27.83;9.93;;;;;;;-6.88;69.22;101951.44;1712563;82;21112;-80
2020/12/06 05:13:37;;;;;;;40.13;13.07;;;;;;;-6.91;68.90;101954.70;1685706;84;21115;-80
2020/12/06 05:16:07;;;;;;;27.00;10.10;;;;;;;-6.90;68.89;101950.45;1725259;82;21140;-79
2020/12/06 05:18:36;;;;;;;30.50;10.53;;;;;;;-6.92;68.76;101950.75;1714636;82;21378;-80
2020/12/06 05:21:04;;;;;;;32.77;11.37;;;;;;;-6.91;68.93;101958.95;1713846;81;21190;-78
2020/12/06 05:23:31;;;;;;;22.13;8.70;;;;;;;-6.92;69.03;101964.84;1675521;84;21115;-79
2020/12/06 05:26:00;;;;;;;22.23;9.37;;;;;;;-6.96;69.12;101956.98;1730567;82;21106;-79
2020/12/06 05:28:28;;;;;;;23.03;9.83;;;;;;;-6.97;69.17;101957.78;1720100;81;21112;-80
2020/12/06 05:31:00;;;;;;;27.33;9.97;;;;;;;-7.00;69.15;101955.00;1679175;83;22055;-80
2020/12/06 05:33:29;;;;;;;23.10;9.10;;;;;;;-7.02;68.94;101957.86;1680017;83;21631;-78
2020/12/06 05:36:00;;;;;;;19.57;8.70;;;;;;;-7.01;69.22;101954.52;1720786;82;21180;-80
2020/12/06 05:38:28;;;;;;;15.97;6.57;;;;;;;-7.02;69.04;101960.42;1680116;83;21215;-79
2020/12/06 05:40:56;;;;;;;17.67;8.70;;;;;;;-7.02;69.37;101959.14;1723684;82;21589;-80
2020/12/06 05:43:28;;;;;;;19.70;9.23;;;;;;;-7.04;68.67;101961.11;1717724;80;21210;-78
2020/12/06 05:46:09;;;;;;;19.90;8.27;;;;;;;-7.04;68.59;101961.11;1726675;79;75382;-82
2020/12/06 05:48:37;;;;;;;19.12;7.53;;;;;;;-7.06;68.55;101962.31;1737311;78;76328;-79
2020/12/06 05:51:06;;;;;;;19.53;8.77;;;;;;;-7.07;68.83;101963.49;1745997;81;21080;-81
2020/12/06 05:53:35;;;;;;;20.47;9.53;;;;;;;-7.06;68.55;101968.72;1729708;81;21079;-82
2020/12/06 05:56:17;;;;;;;12.58;5.85;;;;;;;-7.07;68.21;101972.05;1718694;81;21413;-81
2020/12/06 05:58:50;;;;;;;21.15;9.45;;;;;;;-7.07;68.37;101969.49;1705042;82;21293;-81
2020/12/06 06:01:22;;;;;;;23.93;9.50;;;;;;;-7.08;68.49;101967.73;1722869;81;21244;-81
2020/12/06 06:03:53;;;;;;;22.32;9.15;;;;;;;-7.09;68.43;101962.10;1733842;81;21208;-79
2020/12/06 06:06:41;;;;;;;23.70;9.63;;;;;;;-7.05;68.63;101971.77;1728316;81;21134;-79
2020/12/06 06:09:09;;;;;;;17.43;7.90;;;;;;;-7.08;68.35;101968.14;1739990;81;21362;-78
2020/12/06 06:11:39;;;;;;;31.23;8.60;;;;;;;-7.05;68.19;101973.44;1747298;81;21189;-79
2020/12/06 06:14:09;;;;;;;21.17;8.87;;;;;;;-7.04;68.17;101981.60;1770493;80;21149;-77
2020/12/06 06:16:36;;;;;;;22.57;8.70;;;;;;;-7.03;67.74;101980.43;1759242;79;21692;-78
2020/12/06 06:19:05;;;;;;;25.67;8.67;;;;;;;-6.99;67.75;101982.41;1772052;80;21124;-76
2020/12/06 06:21:39;;;;;;;18.70;9.40;;;;;;;-6.96;67.91;101985.15;1779192;80;22345;-73
2020/12/06 06:24:10;;;;;;;27.73;10.80;;;;;;;-6.97;67.12;101984.67;1765562;80;21399;-75
2020/12/06 06:26:41;;;;;;;22.37;9.70;;;;;;;-6.95;67.17;101984.75;1764759;80;21191;-76
2020/12/06 06:29:14;;;;;;;22.90;10.00;;;;;;;-6.93;66.89;101989.98;1760540;80;21224;-77
2020/12/06 06:31:45;;;;;;;24.17;9.97;;;;;;;-6.90;66.73;101993.64;1778055;80;21809;-76
2020/12/06 06:34:15;;;;;;;27.40;10.33;;;;;;;-6.90;66.91;101987.23;1739215;80;21371;-75
2020/12/06 06:36:46;;;;;;;26.73;10.50;;;;;;;-6.87;66.73;101987.81;1729813;80;21233;-76
2020/12/06 06:39:21;;;;;;;25.80;9.83;;;;;;;-6.85;66.26;101995.20;1737147;80;21616;-77
2020/12/06 06:42:13;;;;;;;27.07;10.73;;;;;;;-6.84;66.38;101991.44;1758997;80;21176;-76
2020/12/06 06:44:45;;;;;;;29.10;11.17;;;;;;;-6.82;66.10;101988.98;1773707;79;21160;-76
2020/12/06 06:47:14;;;;;;;18.60;9.78;;;;;;;-6.79;66.70;101999.41;1755280;80;21885;-77
2020/12/06 06:49:57;;;;;;;28.07;10.33;;;;;;;-6.80;65.66;101998.53;1765330;80;21185;-74
2020/12/06 06:52:29;;;;;;;21.90;8.60;;;;;;;-6.76;66.05;101997.07;1769517;79;21100;-75
2020/12/06 06:54:58;;;;;;;21.77;10.07;;;;;;;-6.74;65.40;101987.77;1768558;79;21624;-75
2020/12/06 06:57:31;;;;;;;19.87;8.53;;;;;;;-6.71;65.82;101991.83;1779591;79;21137;-76
2020/12/06 07:00:00;;;;;;;26.63;9.70;;;;;;;-6.65;66.12;101992.59;1764201;80;21188;-78
2020/12/06 07:02:38;;;;;;;25.10;9.93;;;;;;;-6.63;65.80;101995.73;1751055;80;21185;-76
2020/12/06 07:05:16;;;;;;;31.43;9.33;;;;;;;-6.57;65.50;101994.84;1764954;80;21580;-74
2020/12/06 07:07:52;;;;;;;20.00;6.20;;;;;;;-6.15;64.45;101989.28;1765246;80;21151;-76
2020/12/06 07:10:25;;;;;;;49.70;15.97;;;;;;;-5.51;62.30;101984.88;1763397;80;21119;-79
2020/12/06 07:13:18;;;;;;;25.37;10.90;;;;;;;-4.82;61.45;101978.89;1765649;80;21263;-79
2020/12/06 07:15:45;;;;;;;27.33;9.83;;;;;;;-4.14;59.45;101968.84;1743513;80;21181;-75
2020/12/06 07:18:13;;;;;;;21.73;8.80;;;;;;;-3.47;57.66;101979.52;1756348;78;21609;-74
2020/12/06 07:20:43;;;;;;;18.10;8.43;;;;;;;-2.97;56.25;101982.36;1769619;80;21141;-73
2020/12/06 07:23:12;;;;;;;29.80;11.90;;;;;;;-2.54;53.51;101974.06;1757209;80;21185;-74
2020/12/06 07:25:40;;;;;;;20.40;8.90;;;;;;;-2.09;55.15;101979.53;1746009;80;22295;-73
2020/12/06 07:28:08;;;;;;;18.32;8.98;;;;;;;-1.57;52.28;101972.71;1751850;80;21617;-74
2020/12/06 07:30:36;;;;;;;20.05;8.48;;;;;;;-1.14;50.49;101974.48;1719530;80;22235;-73
2020/12/06 07:33:03;;;;;;;23.70;8.73;;;;;;;-0.88;48.86;101974.22;1733556;80;21198;-74
2020/12/06 07:35:31;;;;;;;23.95;11.00;;;;;;;-0.81;48.39;101978.34;1716777;82;21674;-74
2020/12/06 07:38:00;;;;;;;17.17;8.78;;;;;;;-0.76;47.17;101981.60;1725987;82;22373;-73
2020/12/06 07:40:28;;;;;;;40.23;16.70;;;;;;;-0.61;48.76;101985.59;1721430;80;21617;-74
2020/12/06 07:42:55;;;;;;;24.15;10.58;;;;;;;-0.27;47.78;101989.92;1728634;81;21106;-73
2020/12/06 07:45:26;;;;;;;23.42;10.20;;;;;;;0.27;47.54;101987.06;1713508;82;22184;-74
2020/12/06 07:47:54;;;;;;;;;;;;;;;0.70;44.63;101988.53;1731934;81;21730;-74
2020/12/06 07:50:21;;;;;;;21.20;10.23;;;;;;;1.01;44.34;101990.39;1728282;81;21803;-74
2020/12/06 07:52:49;;;;;;;22.05;10.58;;;;;;;1.08;44.47;101994.06;1694034;83;21198;-74
2020/12/06 07:55:17;;;;;;;25.00;11.95;;;;;;;1.07;43.26;101993.61;1721887;81;21147;-74
2020/12/06 07:57:49;;;;;;;60.65;24.07;;;;;;;1.09;43.41;101990.23;1677756;84;21171;-73
2020/12/06 08:00:21;;;;;;;48.42;17.12;;;;;;;1.07;43.25;101992.31;1705449;82;21214;-74
2020/12/06 08:02:59;;;;;;;25.50;9.95;;;;;;;0.99;41.84;101983.88;1726540;81;21267;-72
2020/12/06 08:05:29;;;;;;;36.68;12.68;;;;;;;0.99;42.21;101997.23;1742124;80;21158;-73
2020/12/06 08:08:02;;;;;;;17.12;8.50;;;;;;;0.99;41.63;101989.06;1765273;80;21614;-72
2020/12/06 08:10:30;;;;;;;29.72;11.30;;;;;;;0.81;41.51;101993.23;1759763;80;21257;-74
2020/12/06 08:12:58;;;;;;;29.18;12.30;;;;;;;0.98;43.38;101991.18;1756144;80;21154;-73
2020/12/06 08:15:28;;;;;;;25.27;10.32;;;;;;;1.18;42.03;101988.34;1764762;79;21438;-75
2020/12/06 08:17:56;;;;;;;21.02;8.53;;;;;;;1.34;41.76;101986.69;1758389;79;21213;-74
2020/12/06 08:20:26;;;;;;;24.50;10.78;;;;;;;1.43;40.29;101989.56;1744451;80;21190;-72
2020/12/06 08:22:59;;;;;;;28.57;13.13;;;;;;;0.98;41.01;101988.58;1754271;79;21137;-73
2020/12/06 08:25:31;;;;;;;27.00;9.08;;;;;;;1.12;40.91;101988.15;1749869;80;21203;-73
2020/12/06 08:28:02;;;;;;;33.63;12.03;;;;;;;1.12;41.28;101986.85;1757575;80;21433;-75
2020/12/06 08:30:31;;;;;;;20.57;7.28;;;;;;;1.44;42.42;101982.22;1760900;80;21119;-74
2020/12/06 08:33:01;;;;;;;17.05;7.83;;;;;;;1.81;39.67;101982.00;1749028;80;21175;-72
2020/12/06 08:35:47;;;;;;;28.27;10.68;;;;;;;2.14;41.83;101978.59;1751793;80;21634;-73
2020/12/06 08:38:25;;;;;;;28.30;12.40;;;;;;;2.36;39.65;101977.86;1728845;80;21683;-73
2020/12/06 08:41:00;;;;;;;31.33;13.68;;;;;;;2.31;38.31;101979.91;1737613;80;22201;-74
2020/12/06 08:43:49;;;;;;;16.77;8.70;;;;;;;2.15;38.63;101975.14;1738146;81;21160;-74
2020/12/06 08:46:24;;;;;;;18.82;8.70;;;;;;;1.74;37.99;101976.17;1699017;83;21186;-74
2020/12/06 08:48:54;;;;;;;31.93;11.80;;;;;;;1.50;38.60;101978.95;1702907;83;21220;-73
2020/12/06 08:51:35;;;;;;;25.27;8.75;;;;;;;1.41;38.82;101973.48;1722123;81;21177;-72
2020/12/06 08:54:08;;;;;;;39.08;13.88;;;;;;;1.30;39.66;101978.33;1732720;81;22349;-73
2020/12/06 08:56:41;;;;;;;24.47;9.43;;;;;;;1.68;39.65;101971.69;1734804;81;21373;-73
2020/12/06 08:59:16;;;;;;;22.85;8.90;;;;;;;1.61;39.43;101971.45;1722161;80;21266;-71
2020/12/06 09:01:53;;;;;;;19.07;8.48;;;;;;;1.64;38.71;101963.77;1708297;81;86636;-70
2020/12/06 09:04:22;;;;;;;22.15;9.05;;;;;;;1.61;38.33;101963.66;1693610;83;22164;-70
2020/12/06 09:06:53;;;;;;;18.00;8.38;;;;;;;1.58;38.69;101966.17;1695134;83;21282;-70
2020/12/06 09:09:21;;;;;;;21.48;9.60;;;;;;;1.75;39.24;101966.65;1683296;83;21749;-71
2020/12/06 09:11:54;;;;;;;19.52;8.45;;;;;;;1.87;37.99;101973.52;1709520;82;21218;-69
2020/12/06 09:14:23;;;;;;;22.55;11.57;;;;;;;1.96;38.60;101974.20;1697796;82;21644;-69
2020/12/06 09:16:51;;;;;;;21.30;9.50;;;;;;;1.96;38.87;101967.27;1700863;82;21668;-70
2020/12/06 09:19:20;;;;;;;17.42;6.95;;;;;;;2.12;37.96;101955.97;1661561;84;21282;-70
2020/12/06 09:21:48;;;;;;;17.95;7.92;;;;;;;2.18;37.05;101958.75;1667856;83;21269;-70
2020/12/06 09:24:18;;;;;;;21.42;8.73;;;;;;;2.17;37.01;101961.77;1645943;84;21292;-69
2020/12/06 09:26:46;;;;;;;22.30;8.88;;;;;;;2.07;37.42;101951.55;1665269;84;21310;-70
2020/12/06 09:29:14;;;;;;;15.45;6.80;;;;;;;1.83;37.74;101971.66;1712023;82;21578;-70
2020/12/06 09:31:42;;;;;;;22.98;8.05;;;;;;;1.58;38.26;101966.17;1714555;82;21210;-70
2020/12/06 09:34:10;;;;;;;19.12;8.28;;;;;;;1.67;38.73;101956.05;1719369;83;21202;-70
2020/12/06 09:36:43;;;;;;;17.32;8.10;;;;;;;1.57;38.56;101957.94;1727653;82;21633;-69
2020/12/06 09:39:10;;;;;;;15.93;8.45;;;;;;;1.48;38.26;101946.86;1692190;83;21247;-70
2020/12/06 09:41:47;;;;;;;19.07;9.33;;;;;;;1.63;38.87;101955.49;1697810;83;21243;-71
2020/12/06 09:44:15;;;;;;;23.70;10.98;;;;;;;1.84;38.15;101945.73;1692349;83;21368;-67
2020/12/06 09:46:43;;;;;;;24.87;8.85;;;;;;;1.99;38.42;101950.88;1707797;82;21216;-68
2020/12/06 09:49:11;;;;;;;20.27;8.90;;;;;;;1.98;37.49;101949.10;1681057;84;21216;-67
2020/12/06 09:51:42;;;;;;;22.37;9.43;;;;;;;2.06;38.03;101947.61;1723044;81;21198;-68
2020/12/06 09:54:11;;;;;;;32.05;15.30;;;;;;;2.06;38.03;101947.61;1725124;81;21312;-68
2020/12/06 09:56:39;;;;;;;25.40;12.55;;;;;;;2.62;37.19;101944.70;1711928;80;21261;-68
2020/12/06 09:59:07;;;;;;;21.70;10.28;;;;;;;3.06;36.80;101943.17;1700574;82;21254;-68
2020/12/06 10:01:36;;;;;;;22.00;10.53;;;;;;;3.23;35.46;101942.66;1699937;82;21788;-69
2020/12/06 10:04:06;;;;;;;25.27;11.05;;;;;;;3.20;36.85;101929.55;1703792;81;21646;-70
2020/12/06 10:06:34;;;;;;;29.70;13.85;;;;;;;3.34;37.58;101930.33;1721818;82;21139;-68
2020/12/06 10:09:04;;;;;;;18.17;9.33;;;;;;;3.67;36.56;101921.87;1700872;83;21381;-70
2020/12/06 10:11:42;;;;;;;21.03;9.20;;;;;;;3.97;34.22;101921.59;1856656;75;24752;-70
2020/12/06 10:14:11;;;;;;;17.25;8.38;;;;;;;3.91;34.30;101918.45;1831279;78;21587;-69
2020/12/06 10:16:39;;;;;;;25.10;9.93;;;;;;;4.02;34.59;101916.46;1839971;77;21155;-70
2020/12/06 10:19:08;;;;;;;24.85;10.70;;;;;;;4.20;34.37;101914.19;1840044;78;21084;-68
2020/12/06 10:21:36;;;;;;;20.77;8.88;;;;;;;4.41;34.58;101916.28;1839877;78;21155;-69
2020/12/06 10:24:04;;;;;;;23.85;9.65;;;;;;;4.20;33.87;101916.80;1840049;78;21162;-68
2020/12/06 10:26:32;;;;;;;18.73;9.73;;;;;;;4.12;34.92;101917.10;1839994;78;21097;-68
2020/12/06 10:29:00;;;;;;;19.10;9.93;;;;;;;4.12;33.75;101918.41;1840172;78;22316;-68
2020/12/06 10:31:28;;;;;;;25.15;11.88;;;;;;;4.05;34.33;101908.69;1839973;76;21593;-70
2020/12/06 10:33:57;;;;;;;46.25;19.80;;;;;;;4.22;35.07;101908.58;1840008;78;21032;-68
2020/12/06 10:36:26;;;;;;;17.17;8.00;;;;;;;4.50;34.64;101912.95;1757978;80;21187;-69
2020/12/06 10:38:53;;;;;;;16.75;7.87;;;;;;;4.49;33.21;101908.61;1789210;80;21130;-70
2020/12/06 10:41:22;;;;;;;19.87;8.40;;;;;;;4.25;33.14;101912.53;1758055;80;21362;-70
2020/12/06 10:43:50;;;;;;;24.50;8.68;;;;;;;3.85;34.30;101904.00;1789225;80;21681;-69
2020/12/06 10:46:26;;;;;;;16.80;7.00;;;;;;;3.99;34.62;101907.73;1758038;81;21171;-69
2020/12/06 10:48:54;;;;;;;23.83;10.15;;;;;;;4.32;34.15;101897.44;1789270;80;21176;-69
2020/12/06 10:51:23;;;;;;;23.40;9.08;;;;;;;4.77;33.26;101899.03;1784304;80;21163;-69
2020/12/06 10:53:50;;;;;;;20.62;8.83;;;;;;;4.82;33.16;101900.41;1776154;80;21426;-68
2020/12/06 10:59:02;;;;;;;18.40;9.15;;;;;;;4.80;32.65;101893.85;1780173;80;21179;-69
2020/12/06 11:01:31;;;;;;;19.92;8.23;;;;;;;4.76;32.69;101900.31;1720075;81;21615;-69
2020/12/06 11:04:03;;;;;;;18.65;8.90;;;;;;;4.51;32.74;101893.83;1739549;82;21598;-68
2020/12/06 11:06:31;;;;;;;18.12;7.28;;;;;;;4.52;32.72;101885.16;1739296;82;21369;-68
2020/12/06 11:09:00;;;;;;;19.42;8.85;;;;;;;4.45;32.62;101889.41;1739373;82;21652;-68
2020/12/06 11:11:29;;;;;;;17.60;8.45;;;;;;;4.27;33.27;101887.79;1731159;82;21147;-68
2020/12/06 11:13:57;;;;;;;21.80;9.40;;;;;;;4.31;33.78;101894.83;1728791;83;21226;-69
2020/12/06 11:16:25;;;;;;;22.60;9.33;;;;;;;4.21;33.90;101900.31;1749259;81;21633;-69
2020/12/06 11:18:54;;;;;;;17.23;8.50;;;;;;;4.12;33.09;101889.72;1751871;81;21305;-69
2020/12/06 11:21:22;;;;;;;27.52;13.62;;;;;;;4.17;33.53;101880.24;1753939;81;21213;-68
2020/12/06 11:23:49;;;;;;;20.40;9.10;;;;;;;4.05;33.30;101877.40;1745231;81;21671;-69
2020/12/06 11:26:18;;;;;;;21.45;8.93;;;;;;;4.08;33.68;101877.48;1726773;83;21644;-69
2020/12/06 11:28:46;;;;;;;24.82;11.88;;;;;;;3.91;32.83;101871.94;1746987;82;21618;-68
2020/12/06 11:31:14;;;;;;;38.73;12.07;;;;;;;4.11;33.69;101874.91;1746939;81;21366;-69
2020/12/06 11:33:43;;;;;;;23.50;11.05;;;;;;;4.38;32.85;101870.16;1728644;83;21158;-68